Terminal Aerodrome Forecast
Issued by NWS Pocatello, ID

Home | Current Version | Previous Version | Text Only | Print | Product List | Glossary On
Versions: 1 2 3 4 5 6 7 8 9 10 11 12 13 14 15 16 17 18
000
FTUS45 KPIH 050137 AAA
TAFPIH
TAF AMD
KPIH 050137Z 0502/0524 32007KT P6SM -SHRA VCTS SCT090 BKN110CB
     FM050300 19011KT P6SM VCSH SCT110 BKN150
     FM051300 21012G22KT P6SM VCSH SCT070 BKN120
     FM051800 26022G32KT P6SM VCTS SCT070 BKN100CB=

USA.gov is the U.S. government's official web portal to all federal, state and local government web resources and services.